Time;durP1;ratioP1;P1;durP2;ratioP2;P2;SDS_P1;SDS_P2;PMS_P1;PMS_P2;Temp;Humidity;BMP_temperature;BMP_pressure;BME280_temperature;BME280_humidity;BME280_pressure;Samples;Min_cycle;Max_cycle;Signal;HPM_P1;HPM_P2
2024/01/19 00:00:00;;;;;;;2.60;2.40;;;8.40;92.50;;;;;;6334474;22;20542;-93
2024/01/19 00:02:29;;;;;;;4.87;3.97;;;8.30;92.50;;;;;;6336679;22;20167;-93
2024/01/19 00:04:57;;;;;;;7.40;4.40;;;8.30;92.50;;;;;;6339051;22;20493;-92
2024/01/19 00:07:26;;;;;;;4.50;4.03;;;8.30;92.40;;;;;;6337729;22;20543;-91
2024/01/19 00:09:56;;;;;;;2.87;2.67;;;8.30;92.40;;;;;;6338213;22;20200;-92
2024/01/19 00:12:25;;;;;;;4.00;3.67;;;8.20;92.40;;;;;;6338066;22;20737;-92
2024/01/19 00:14:53;;;;;;;2.20;2.07;;;8.20;92.40;;;;;;6337253;22;20164;-93
2024/01/19 00:17:22;;;;;;;4.10;2.40;;;8.20;92.50;;;;;;6335902;22;20250;-93
2024/01/19 00:19:54;;;;;;;3.23;2.90;;;8.10;92.60;;;;;;6337283;22;20192;-92
2024/01/19 00:22:22;;;;;;;4.70;3.93;;;8.20;92.70;;;;;;6338224;22;20166;-90
2024/01/19 00:24:51;;;;;;;4.60;2.83;;;8.20;92.70;;;;;;6339660;22;20677;-92
2024/01/19 00:27:29;;;;;;;4.83;4.13;;;8.20;92.80;;;;;;6339553;22;20203;-92
2024/01/19 00:29:57;;;;;;;3.73;2.93;;;8.20;92.90;;;;;;6336902;22;20703;-92
2024/01/19 00:32:26;;;;;;;6.00;4.23;;;8.20;92.80;;;;;;6337905;22;20225;-92
2024/01/19 00:34:55;;;;;;;8.53;3.60;;;8.20;92.70;;;;;;6337107;22;20176;-91
2024/01/19 00:37:23;;;;;;;4.03;3.67;;;8.20;92.70;;;;;;6335251;22;20172;-89
2024/01/19 00:39:52;;;;;;;4.07;3.77;;;8.20;92.70;;;;;;6335555;22;20247;-89
2024/01/19 00:42:22;;;;;;;4.60;3.93;;;8.30;92.70;;;;;;6334188;22;20251;-91
2024/01/19 00:44:51;;;;;;;4.30;3.53;;;8.20;92.60;;;;;;6334150;22;20152;-88
2024/01/19 00:47:19;;;;;;;6.23;4.83;;;8.10;92.50;;;;;;6333174;22;20164;-87
2024/01/19 00:49:48;;;;;;;3.90;2.93;;;8.10;92.50;;;;;;6335473;22;20251;-91
2024/01/19 00:52:16;;;;;;;3.63;3.33;;;8.10;92.50;;;;;;6333775;22;20657;-90
2024/01/19 00:54:45;;;;;;;7.43;3.60;;;8.10;92.50;;;;;;6334612;22;20165;-89
2024/01/19 00:57:13;;;;;;;3.13;2.60;;;8.00;92.50;;;;;;6334475;22;20497;-89
2024/01/19 00:59:43;;;;;;;2.07;1.97;;;8.00;92.50;;;;;;6336186;22;20510;-89
2024/01/19 01:02:12;;;;;;;3.10;2.80;;;7.90;92.50;;;;;;6335164;22;20527;-89
2024/01/19 01:04:40;;;;;;;7.23;4.23;;;7.90;92.50;;;;;;6330754;22;20626;-85
2024/01/19 01:07:09;;;;;;;4.43;3.97;;;7.80;92.70;;;;;;6334602;22;20622;-84
2024/01/19 01:09:37;;;;;;;5.07;3.27;;;7.80;92.80;;;;;;6334392;22;20666;-87
2024/01/19 01:12:06;;;;;;;3.50;3.10;;;7.70;93.20;;;;;;6332713;22;20728;-85
2024/01/19 01:14:35;;;;;;;6.87;4.77;;;7.70;93.40;;;;;;6331906;22;20204;-86
2024/01/19 01:17:05;;;;;;;19.10;3.77;;;7.60;93.70;;;;;;6335159;22;20191;-85
2024/01/19 01:19:33;;;;;;;2.90;2.70;;;7.60;93.90;;;;;;6335410;22;20188;-87
2024/01/19 01:22:02;;;;;;;2.33;2.13;;;7.60;94.00;;;;;;6335627;22;20251;-88
2024/01/19 01:24:30;;;;;;;7.77;3.73;;;7.60;94.10;;;;;;6336112;22;20653;-89
2024/01/19 01:26:59;;;;;;;5.57;4.33;;;7.60;94.10;;;;;;6333085;22;20196;-89
2024/01/19 01:29:27;;;;;;;3.97;3.03;;;7.50;94.20;;;;;;6335190;22;20169;-87
2024/01/19 01:31:56;;;;;;;6.90;4.63;;;7.60;94.20;;;;;;6334723;22;20196;-85
2024/01/19 01:34:26;;;;;;;4.83;4.17;;;7.60;94.10;;;;;;6333403;22;20620;-85
2024/01/19 01:36:54;;;;;;;3.97;3.67;;;7.60;94.10;;;;;;6333364;22;20168;-86
2024/01/19 01:39:23;;;;;;;9.47;4.73;;;7.60;94.20;;;;;;6332703;22;20669;-84
2024/01/19 01:41:52;;;;;;;3.43;3.13;;;7.50;94.20;;;;;;6335207;22;20172;-85
2024/01/19 01:44:21;;;;;;;3.00;2.70;;;7.50;94.30;;;;;;6331593;22;20161;-85
2024/01/19 01:46:52;;;;;;;8.60;4.83;;;7.50;94.40;;;;;;6333672;22;20611;-89
2024/01/19 01:49:21;;;;;;;3.83;3.33;;;7.40;94.30;;;;;;6333261;22;20169;-88
2024/01/19 01:52:00;;;;;;;2.73;2.53;;;7.40;94.30;;;;;;6337874;22;20195;-87
2024/01/19 01:54:30;;;;;;;4.70;4.17;;;7.50;94.30;;;;;;6356110;22;20144;-89
2024/01/19 01:56:58;;;;;;;4.77;4.37;;;7.50;94.20;;;;;;6363673;22;20164;-87
2024/01/19 01:59:27;;;;;;;4.97;3.20;;;7.40;94.20;;;;;;6342914;22;20235;-87
2024/01/19 02:01:56;;;;;;;12.37;4.77;;;7.40;94.20;;;;;;6341881;22;20165;-87
2024/01/19 02:04:25;;;;;;;12.57;4.47;;;7.40;94.20;;;;;;6333934;22;20175;-89
2024/01/19 02:06:55;;;;;;;4.73;3.03;;;7.40;94.20;;;;;;6336234;22;20157;-88
2024/01/19 02:09:24;;;;;;;4.30;3.47;;;7.40;94.10;;;;;;6334878;22;20164;-88
2024/01/19 02:11:53;;;;;;;5.00;4.13;;;7.50;94.00;;;;;;6335006;22;20286;-88
2024/01/19 02:14:22;;;;;;;4.43;4.03;;;7.60;94.00;;;;;;6334808;22;20199;-89
2024/01/19 02:16:50;;;;;;;5.03;4.10;;;7.60;93.90;;;;;;6335408;22;20608;-87
2024/01/19 02:19:19;;;;;;;5.20;4.33;;;7.60;93.90;;;;;;6336111;22;20195;-89
2024/01/19 02:21:48;;;;;;;6.13;3.60;;;7.60;93.70;;;;;;6337473;22;20176;-90
2024/01/19 02:24:19;;;;;;;6.57;4.77;;;7.70;93.60;;;;;;6333412;22;20164;-88
2024/01/19 02:26:47;;;;;;;8.83;5.43;;;7.70;93.50;;;;;;6335041;22;20560;-90
2024/01/19 02:29:16;;;;;;;5.17;3.17;;;7.70;93.40;;;;;;6335088;22;20161;-90
2024/01/19 02:31:45;;;;;;;4.23;3.83;;;7.70;93.20;;;;;;6336736;22;20230;-88
2024/01/19 02:34:14;;;;;;;8.73;4.00;;;7.80;93.10;;;;;;6336260;22;20171;-88
2024/01/19 02:36:42;;;;;;;5.70;4.30;;;7.70;93.00;;;;;;6335926;22;20242;-89
2024/01/19 02:39:11;;;;;;;5.13;4.67;;;7.80;93.00;;;;;;6334306;22;20168;-88
2024/01/19 02:41:42;;;;;;;5.27;4.60;;;7.70;92.90;;;;;;6335196;22;20627;-89
2024/01/19 02:44:10;;;;;;;13.93;3.10;;;7.80;92.90;;;;;;6335685;22;20479;-89
2024/01/19 02:46:39;;;;;;;3.53;2.63;;;7.90;92.90;;;;;;6336542;22;20499;-90
2024/01/19 02:49:08;;;;;;;4.03;3.70;;;7.90;92.90;;;;;;6336563;22;20229;-88
2024/01/19 02:51:37;;;;;;;8.57;4.17;;;7.80;92.80;;;;;;6336065;22;20195;-90
2024/01/19 02:54:05;;;;;;;6.53;4.60;;;7.90;92.80;;;;;;6333860;22;20168;-89
2024/01/19 02:56:34;;;;;;;2.40;2.23;;;7.90;92.80;;;;;;6336535;22;20167;-90
2024/01/19 02:59:05;;;;;;;6.90;3.20;;;7.80;92.70;;;;;;6336874;22;20160;-92
2024/01/19 03:01:33;;;;;;;6.70;3.73;;;7.80;92.80;;;;;;6337308;22;20259;-89
2024/01/19 03:04:04;;;;;;;4.13;3.70;;;7.80;92.80;;;;;;6338099;22;20183;-89
2024/01/19 03:06:32;;;;;;;6.90;3.03;;;7.80;92.80;;;;;;6338449;22;20595;-92
2024/01/19 03:09:01;;;;;;;10.17;6.23;;;7.80;92.90;;;;;;6337441;22;20171;-90
2024/01/19 03:11:30;;;;;;;3.83;2.57;;;7.80;92.80;;;;;;6336222;22;20643;-91
2024/01/19 03:13:59;;;;;;;10.03;3.60;;;7.80;92.80;;;;;;6334799;22;20221;-89
2024/01/19 03:16:29;;;;;;;4.07;3.67;;;7.80;92.70;;;;;;6334694;22;20508;-89
2024/01/19 03:19:00;;;;;;;4.00;3.70;;;7.70;92.70;;;;;;6335058;22;20199;-89
2024/01/19 03:21:29;;;;;;;5.40;3.57;;;7.70;92.80;;;;;;6336281;22;20168;-91
2024/01/19 03:23:57;;;;;;;5.50;4.97;;;7.80;92.80;;;;;;6333272;22;20610;-90
2024/01/19 03:26:26;;;;;;;5.83;4.47;;;7.80;92.80;;;;;;6333462;22;20530;-90
2024/01/19 03:28:55;;;;;;;7.63;4.63;;;7.70;92.70;;;;;;6335818;22;20164;-92
2024/01/19 03:31:24;;;;;;;4.23;3.63;;;7.70;92.70;;;;;;6337189;22;20156;-93
2024/01/19 03:33:54;;;;;;;4.93;4.17;;;7.70;92.80;;;;;;6336414;22;20222;-90
2024/01/19 03:36:24;;;;;;;3.83;3.53;;;7.80;92.70;;;;;;6333989;22;20192;-88
2024/01/19 03:38:53;;;;;;;4.37;3.63;;;7.80;92.60;;;;;;6336540;22;20160;-90
2024/01/19 03:41:22;;;;;;;6.83;3.83;;;7.80;92.60;;;;;;6335177;22;20173;-90
2024/01/19 03:43:50;;;;;;;4.23;3.50;;;7.80;92.60;;;;;;6333540;22;20689;-88
2024/01/19 03:46:19;;;;;;;7.57;4.73;;;7.90;92.60;;;;;;6332922;22;20166;-89
2024/01/19 03:48:48;;;;;;;4.67;3.20;;;7.90;92.50;;;;;;6333905;22;20256;-91
2024/01/19 03:51:18;;;;;;;4.03;2.47;;;7.90;92.50;;;;;;6333146;22;20298;-90
2024/01/19 03:53:47;;;;;;;3.70;3.50;;;7.90;92.40;;;;;;6334331;22;20190;-91
2024/01/19 03:56:16;;;;;;;5.77;3.70;;;7.80;92.50;;;;;;6334616;22;20179;-91
2024/01/19 03:58:44;;;;;;;4.03;3.67;;;7.80;92.60;;;;;;6336012;22;20256;-89
2024/01/19 04:01:15;;;;;;;8.10;4.30;;;7.80;92.60;;;;;;6335781;22;20161;-91
2024/01/19 04:03:44;;;;;;;5.23;3.43;;;7.80;92.60;;;;;;6335416;22;20179;-89
2024/01/19 04:06:13;;;;;;;5.60;4.87;;;7.80;92.40;;;;;;6333697;22;20190;-92
2024/01/19 04:08:44;;;;;;;5.23;4.73;;;7.70;92.30;;;;;;6336324;22;20157;-90
2024/01/19 04:11:13;;;;;;;8.87;3.43;;;7.70;92.20;;;;;;6333366;22;20243;-92
2024/01/19 04:13:42;;;;;;;9.00;4.13;;;7.60;92.10;;;;;;6337120;22;20215;-89
2024/01/19 04:16:10;;;;;;;2.17;2.03;;;7.60;92.20;;;;;;6336199;22;20255;-88
2024/01/19 04:18:39;;;;;;;7.00;4.37;;;7.60;92.30;;;;;;6335026;22;20200;-89
2024/01/19 04:21:08;;;;;;;4.87;4.17;;;7.50;92.30;;;;;;6335929;22;20172;-91
2024/01/19 04:23:37;;;;;;;6.47;4.40;;;7.50;92.30;;;;;;6334414;22;20170;-90
2024/01/19 04:26:07;;;;;;;6.33;4.87;;;7.50;92.40;;;;;;6334958;22;20675;-88
2024/01/19 04:28:35;;;;;;;7.17;4.63;;;7.50;92.40;;;;;;6336429;22;20164;-89
2024/01/19 04:31:04;;;;;;;6.37;5.33;;;7.40;92.50;;;;;;6335820;22;20187;-87
2024/01/19 04:33:33;;;;;;;5.90;3.90;;;7.40;92.50;;;;;;6338082;22;20693;-90
2024/01/19 04:36:02;;;;;;;5.20;4.37;;;7.40;92.50;;;;;;6344290;22;20161;-89
2024/01/19 04:38:30;;;;;;;5.23;4.23;;;7.30;92.60;;;;;;6363174;22;20190;-87
2024/01/19 04:40:59;;;;;;;3.93;3.23;;;7.30;92.60;;;;;;6355331;22;20671;-86
2024/01/19 04:43:30;;;;;;;6.37;5.43;;;7.20;92.50;;;;;;6339029;22;20615;-88
2024/01/19 04:45:58;;;;;;;4.40;4.03;;;7.20;92.50;;;;;;6334893;22;20185;-85
2024/01/19 04:48:27;;;;;;;4.90;4.43;;;7.10;92.50;;;;;;6331587;22;20194;-87
2024/01/19 04:50:56;;;;;;;7.27;5.73;;;7.00;92.50;;;;;;6333376;22;20169;-87
2024/01/19 04:53:25;;;;;;;6.63;5.17;;;7.00;92.50;;;;;;6329822;22;20267;-88
2024/01/19 04:55:53;;;;;;;5.90;5.30;;;6.90;92.60;;;;;;6332119;22;20566;-88
2024/01/19 04:58:21;;;;;;;5.13;4.20;;;6.90;92.60;;;;;;6330284;22;20171;-87
2024/01/19 05:00:52;;;;;;;5.47;4.57;;;6.90;92.70;;;;;;6330745;22;20842;-88
2024/01/19 05:03:20;;;;;;;4.73;4.33;;;6.80;92.70;;;;;;6335516;22;20183;-87
2024/01/19 05:05:49;;;;;;;9.00;5.37;;;6.80;92.80;;;;;;6334590;22;20168;-89
2024/01/19 05:08:21;;;;;;;9.70;5.60;;;6.70;92.80;;;;;;6338874;22;20229;-91
2024/01/19 05:13:33;;;;;;;6.10;5.27;;;6.60;92.90;;;;;;6333490;22;20195;-88
2024/01/19 05:19:13;;;;;;;12.77;4.27;;;6.60;92.90;;;;;;6334047;22;20191;-89
2024/01/19 05:24:41;;;;;;;7.93;4.90;;;6.50;93.10;;;;;;6336186;22;20206;-86
2024/01/19 05:35:37;;;;;;;10.53;6.93;;;6.40;93.50;;;;;;6331386;22;20175;-86
2024/01/19 05:38:19;;;;;;;7.33;3.93;;;6.30;93.40;;;;;;6332129;22;20172;-85
2024/01/19 05:43:34;;;;;;;14.43;7.67;;;6.30;93.40;;;;;;6335172;22;20252;-84
2024/01/19 05:46:02;;;;;;;7.07;4.97;;;6.30;93.80;;;;;;6334094;22;20246;-84
2024/01/19 05:48:33;;;;;;;6.60;4.60;;;6.40;93.40;;;;;;6335728;22;20172;-83
2024/01/19 05:53:45;;;;;;;8.60;5.87;;;6.30;93.40;;;;;;6333219;22;20264;-84
2024/01/19 05:58:56;;;;;;;9.67;7.17;;;6.30;93.40;;;;;;6335805;22;20174;-85
2024/01/19 06:01:24;;;;;;;5.37;4.47;;;6.30;93.40;;;;;;6334763;22;20289;-85
2024/01/19 06:03:55;;;;;;;13.40;7.00;;;6.30;93.50;;;;;;6335497;22;20178;-85
2024/01/19 06:06:23;;;;;;;5.93;4.10;;;6.30;93.40;;;;;;6335352;22;20254;-85
2024/01/19 06:08:52;;;;;;;9.23;6.67;;;6.30;93.40;;;;;;6337746;22;20210;-87
2024/01/19 06:11:20;;;;;;;6.57;5.80;;;6.30;93.40;;;;;;6337278;22;20239;-90
2024/01/19 06:19:29;;;;;;;6.53;5.87;;;6.30;93.40;;;;;;6336753;22;20226;-87
2024/01/19 06:21:58;;;;;;;5.13;4.77;;;6.40;93.40;;;;;;6339696;22;20238;-90
2024/01/19 06:24:26;;;;;;;10.10;6.67;;;6.40;93.40;;;;;;6337093;22;20599;-90
2024/01/19 06:27:09;;;;;;;17.30;6.53;;;6.50;93.40;;;;;;6333679;22;20529;-88
2024/01/19 06:32:24;;;;;;;4.17;3.73;;;6.50;93.20;;;;;;6333526;22;20199;-90
2024/01/19 06:34:54;;;;;;;6.60;5.63;;;6.50;93.30;;;;;;6330988;22;20192;-86
2024/01/19 06:40:19;;;;;;;4.83;3.87;;;6.50;93.30;;;;;;6335436;22;20207;-87
2024/01/19 06:43:01;;;;;;;5.93;5.40;;;6.50;93.30;;;;;;6336612;22;20167;-87
2024/01/19 06:45:30;;;;;;;7.03;5.03;;;6.60;93.20;;;;;;6337878;22;20167;-87
2024/01/19 06:48:13;;;;;;;7.37;6.60;;;6.60;93.10;;;;;;6336805;22;20606;-88
2024/01/19 06:53:25;;;;;;;7.63;4.67;;;6.60;93.10;;;;;;6335519;22;20909;-89
2024/01/19 06:55:54;;;;;;;10.97;6.43;;;6.60;93.20;;;;;;6335852;22;20205;-86
2024/01/19 07:04:13;;;;;;;17.33;7.40;;;6.70;93.30;;;;;;6333236;22;20164;-88
2024/01/19 07:06:44;;;;;;;15.20;6.93;;;6.80;93.30;;;;;;6336036;22;20170;-87
2024/01/19 07:09:12;;;;;;;12.03;7.80;;;6.90;93.20;;;;;;6336783;22;20259;-85
2024/01/19 07:11:41;;;;;;;5.53;4.77;;;6.90;93.10;;;;;;6334338;22;20164;-87
2024/01/19 07:19:47;;;;;;;10.47;4.27;;;7.00;93.00;;;;;;6335408;22;20192;-85
2024/01/19 07:25:14;;;;;;;9.40;5.23;;;7.10;92.90;;;;;;6360746;22;20152;-88
2024/01/19 07:27:42;;;;;;;9.27;7.03;;;7.10;92.70;;;;;;6351722;22;20322;-88
2024/01/19 07:33:07;;;;;;;8.97;4.67;;;7.10;92.80;;;;;;6334002;22;20172;-88
2024/01/19 07:38:28;;;;;;;4.03;3.73;;;7.20;92.80;;;;;;6335328;22;20171;-89
2024/01/19 07:43:54;;;;;;;7.83;6.90;;;7.30;92.90;;;;;;6332662;22;20172;-85
2024/01/19 07:49:05;;;;;;;7.33;6.13;;;7.40;92.90;;;;;;6333188;22;20243;-86
2024/01/19 07:51:33;;;;;;;10.90;5.77;;;7.40;92.90;;;;;;6334536;22;20172;-83
2024/01/19 07:54:04;;;;;;;5.43;4.93;;;7.50;93.00;;;;;;6334534;22;20192;-84
2024/01/19 07:56:33;;;;;;;16.07;4.50;;;7.50;93.00;;;;;;6334377;22;20161;-81
2024/01/19 07:59:01;;;;;;;7.40;5.97;;;7.50;93.00;;;;;;6332409;22;20624;-83
2024/01/19 08:01:30;;;;;;;5.43;4.13;;;7.60;92.90;;;;;;6332173;22;20203;-81
2024/01/19 08:03:59;;;;;;;5.27;4.43;;;7.70;93.00;;;;;;6332673;22;20168;-82
2024/01/19 08:06:28;;;;;;;7.60;6.90;;;7.70;93.00;;;;;;6333556;22;20171;-85
2024/01/19 08:08:57;;;;;;;6.50;5.23;;;7.80;93.00;;;;;;6334301;22;20176;-82
2024/01/19 08:11:27;;;;;;;11.93;6.43;;;7.90;93.00;;;;;;6333744;22;20206;-88
2024/01/19 08:13:56;;;;;;;6.57;5.47;;;8.00;92.90;;;;;;6336378;22;20192;-90
2024/01/19 08:16:24;;;;;;;12.67;6.30;;;8.10;92.80;;;;;;6335614;22;20251;-86
2024/01/19 08:18:53;;;;;;;7.43;5.73;;;8.30;92.80;;;;;;6333610;22;20522;-86
2024/01/19 08:21:22;;;;;;;7.23;6.53;;;8.30;92.80;;;;;;6333787;22;20726;-83
2024/01/19 08:23:51;;;;;;;15.90;7.10;;;8.30;92.60;;;;;;6334880;22;20619;-85
2024/01/19 08:29:19;;;;;;;5.93;4.87;;;8.50;92.70;;;;;;6333373;22;20168;-87
2024/01/19 08:31:52;;;;;;;11.77;7.60;;;8.60;92.70;;;;;;6333261;22;20168;-87
2024/01/19 08:42:55;;;;;;;7.43;4.23;;;8.80;92.40;;;;;;6335478;22;20160;-89
2024/01/19 08:45:38;;;;;;;9.13;6.67;;;8.90;92.40;;;;;;6335579;22;20619;-91
2024/01/19 08:48:21;;;;;;;10.33;6.07;;;9.00;92.10;;;;;;6334588;22;20164;-86
2024/01/19 08:53:45;;;;;;;8.33;4.10;;;9.10;91.90;;;;;;6336291;22;20526;-89
2024/01/19 08:56:20;;;;;;;5.40;4.90;;;9.20;91.90;;;;;;6334386;22;20168;-88
2024/01/19 08:58:49;;;;;;;5.87;5.43;;;9.20;91.90;;;;;;6337223;22;20159;-89
2024/01/19 09:01:20;;;;;;;6.43;4.50;;;9.30;92.20;;;;;;6337411;22;20164;-90
2024/01/19 09:03:49;;;;;;;9.20;4.67;;;9.30;92.20;;;;;;6334656;22;20172;-86
2024/01/19 09:06:18;;;;;;;5.97;4.77;;;9.40;92.30;;;;;;6333429;22;20569;-88
2024/01/19 09:08:47;;;;;;;6.63;6.03;;;9.50;92.30;;;;;;6334068;22;20244;-85
2024/01/19 09:11:16;;;;;;;7.30;4.17;;;9.60;92.30;;;;;;6332146;22;20179;-87
2024/01/19 09:13:58;;;;;;;12.17;6.57;;;9.70;92.30;;;;;;6330622;22;20203;-86
2024/01/19 09:22:22;;;;;;;18.23;5.53;;;9.90;92.30;;;;;;6325060;22;20315;-86
2024/01/19 09:24:51;;;;;;;7.90;6.17;;;10.00;92.40;;;;;;6334441;22;20196;-86
2024/01/19 09:27:19;;;;;;;8.93;3.83;;;10.20;92.50;;;;;;6332134;22;20161;-86
2024/01/19 09:29:48;;;;;;;4.27;3.77;;;10.20;92.50;;;;;;6334343;22;20171;-84
2024/01/19 09:32:32;;;;;;;5.47;4.53;;;10.30;92.60;;;;;;6330066;22;20168;-85
2024/01/19 09:37:57;;;;;;;4.93;3.60;;;10.50;92.70;;;;;;6333197;22;20196;-90
2024/01/19 09:46:06;;;;;;;3.53;3.23;;;10.80;92.50;;;;;;6333621;22;20164;-89
2024/01/19 09:48:50;;;;;;;8.80;3.80;;;10.90;92.40;;;;;;6339523;22;20153;-87
2024/01/19 09:51:41;;;;;;;6.80;4.77;;;11.00;92.40;;;;;;6335396;22;20173;-89
2024/01/19 09:54:16;;;;;;;7.63;5.13;;;11.10;92.30;;;;;;6338539;22;20167;-86
2024/01/19 09:56:45;;;;;;;3.87;3.03;;;11.10;91.90;;;;;;6337834;22;20167;-89
2024/01/19 09:59:29;;;;;;;7.10;3.90;;;11.20;91.90;;;;;;6334243;22;20161;-87
2024/01/19 10:01:59;;;;;;;12.67;5.63;;;11.30;91.90;;;;;;6336994;22;20160;-88
2024/01/19 10:04:29;;;;;;;4.67;3.63;;;11.30;91.80;;;;;;6335095;22;20178;-88
2024/01/19 10:09:41;;;;;;;3.53;3.20;;;11.40;91.90;;;;;;6361584;22;20165;-89
2024/01/19 10:12:11;;;;;;;8.23;4.57;;;11.50;91.80;;;;;;6356558;22;20191;-88
2024/01/19 10:14:41;;;;;;;6.27;4.50;;;11.60;91.90;;;;;;6352841;22;20661;-90
2024/01/19 10:17:10;;;;;;;2.80;2.47;;;11.70;91.90;;;;;;6338025;22;20221;-90
2024/01/19 10:19:41;;;;;;;4.37;3.70;;;11.80;91.90;;;;;;6336723;22;20192;-88
2024/01/19 10:22:24;;;;;;;4.73;4.33;;;11.80;91.70;;;;;;6338822;22;20168;-88
2024/01/19 10:25:00;;;;;;;11.23;5.80;;;11.90;91.80;;;;;;6335407;22;20168;-88
2024/01/19 10:27:40;;;;;;;6.07;3.40;;;12.00;91.70;;;;;;6339035;22;20156;-90
2024/01/19 10:30:13;;;;;;;5.53;2.63;;;12.10;91.70;;;;;;6340487;22;20475;-88
2024/01/19 10:32:43;;;;;;;6.13;3.10;;;12.20;91.60;;;;;;6342265;22;20160;-91
2024/01/19 10:35:15;;;;;;;7.67;6.43;;;12.20;91.50;;;;;;6343591;22;20192;-91
2024/01/19 10:37:44;;;;;;;6.20;3.80;;;12.30;91.50;;;;;;6343155;22;20239;-92
2024/01/19 10:40:21;;;;;;;2.83;2.57;;;12.40;91.50;;;;;;6335843;22;20164;-92
2024/01/19 10:42:53;;;;;;;3.50;3.20;;;12.50;91.60;;;;;;6337763;22;20156;-92
2024/01/19 10:45:24;;;;;;;14.03;5.23;;;12.60;91.60;;;;;;6339250;22;20480;-90
2024/01/19 10:47:55;;;;;;;5.10;2.93;;;12.80;91.60;;;;;;6337743;22;20164;-91
2024/01/19 10:50:28;;;;;;;6.73;3.97;;;12.90;91.60;;;;;;6337123;22;20172;-90
2024/01/19 10:52:59;;;;;;;3.33;2.80;;;12.90;91.60;;;;;;6337988;22;20207;-87
2024/01/19 10:55:29;;;;;;;8.23;6.17;;;13.00;91.30;;;;;;6335331;22;20229;-90
2024/01/19 10:58:12;;;;;;;5.83;3.57;;;13.10;91.20;;;;;;6336555;22;20176;-87
2024/01/19 11:00:41;;;;;;;8.93;5.40;;;13.10;91.10;;;;;;6335793;22;20160;-84
2024/01/19 11:03:10;;;;;;;4.90;2.83;;;13.10;90.90;;;;;;6334151;22;20176;-86
2024/01/19 11:05:41;;;;;;;11.67;3.80;;;13.10;90.70;;;;;;6335552;22;20241;-87
2024/01/19 11:08:10;;;;;;;7.10;3.13;;;13.10;90.80;;;;;;6334779;22;20619;-88
2024/01/19 11:10:38;;;;;;;13.60;5.97;;;13.20;90.80;;;;;;6335537;22;20415;-84
2024/01/19 11:13:13;;;;;;;3.73;3.43;;;13.20;90.80;;;;;;6335326;22;20169;-87
2024/01/19 11:15:50;;;;;;;5.10;4.50;;;13.20;90.90;;;;;;6335979;22;20565;-89
2024/01/19 11:18:19;;;;;;;4.33;2.13;;;13.20;90.90;;;;;;6336974;22;20235;-91
2024/01/19 11:20:52;;;;;;;3.07;2.63;;;13.20;90.80;;;;;;6336636;22;20498;-88
2024/01/19 11:23:21;;;;;;;4.47;3.63;;;13.20;90.80;;;;;;6337192;22;20157;-89
2024/01/19 11:26:02;;;;;;;4.57;3.13;;;13.20;90.80;;;;;;6336134;22;20244;-90
2024/01/19 11:28:38;;;;;;;3.23;2.87;;;13.20;90.80;;;;;;6338134;22;20161;-90
2024/01/19 11:31:14;;;;;;;3.33;2.63;;;13.30;90.80;;;;;;6336374;22;20172;-89
2024/01/19 11:33:43;;;;;;;3.87;3.40;;;13.40;90.80;;;;;;6334047;22;20164;-86
2024/01/19 11:36:57;;;;;;;4.57;3.47;;;13.40;90.80;;;;;;6334946;22;20503;-86
2024/01/19 11:39:40;;;;;;;2.70;2.00;;;13.50;90.80;;;;;;6302966;22;20505;-85
2024/01/19 11:42:09;;;;;;;5.87;4.60;;;13.60;90.80;;;;;;6334544;22;20623;-87
2024/01/19 11:44:44;;;;;;;2.23;2.07;;;13.60;90.80;;;;;;6332590;22;20187;-83
2024/01/19 11:47:44;;;;;;;4.13;3.30;;;13.70;90.80;;;;;;6333201;22;20684;-86
2024/01/19 11:50:14;;;;;;;4.47;3.33;;;13.80;90.80;;;;;;6332763;22;20188;-85
2024/01/19 11:52:47;;;;;;;5.60;3.97;;;13.80;90.70;;;;;;6334545;22;20187;-87
2024/01/19 11:55:52;;;;;;;3.37;2.87;;;13.90;90.60;;;;;;6334804;22;20156;-85
2024/01/19 11:58:41;;;;;;;8.80;3.07;;;14.00;90.70;;;;;;6332953;22;20160;-87
2024/01/19 12:01:10;;;;;;;2.87;2.60;;;14.00;90.60;;;;;;6324141;22;20199;-87
2024/01/19 12:03:39;;;;;;;6.37;3.40;;;14.10;90.60;;;;;;6334477;22;20172;-86
2024/01/19 12:09:08;;;;;;;2.30;2.10;;;14.30;90.50;;;;;;6333450;22;20513;-88
2024/01/19 12:11:37;;;;;;;3.97;2.83;;;14.40;90.40;;;;;;6335611;22;20164;-87
2024/01/19 12:14:09;;;;;;;2.53;2.33;;;14.50;90.40;;;;;;6334323;22;20161;-87
2024/01/19 12:16:38;;;;;;;7.10;3.20;;;14.60;90.40;;;;;;6335617;22;20254;-89
2024/01/19 12:19:07;;;;;;;3.17;2.67;;;14.60;90.30;;;;;;6334751;22;20188;-89
2024/01/19 12:21:36;;;;;;;5.03;2.33;;;14.60;90.30;;;;;;6308361;22;20255;-89
2024/01/19 12:24:34;;;;;;;4.07;3.00;;;14.70;90.30;;;;;;6334422;22;20281;-86
2024/01/19 12:27:32;;;;;;;2.93;2.27;;;14.60;90.20;;;;;;6329798;22;20234;-87
2024/01/19 12:33:29;;;;;;;4.97;3.83;;;14.80;90.10;;;;;;6332139;22;20165;-86
2024/01/19 12:36:11;;;;;;;1.73;1.63;;;14.90;90.10;;;;;;6329693;22;20178;-87
2024/01/19 12:38:40;;;;;;;2.37;1.70;;;15.00;90.00;;;;;;6333812;22;20500;-90
2024/01/19 12:41:16;;;;;;;8.37;2.67;;;15.00;90.00;;;;;;6335163;22;20247;-90
2024/01/19 12:43:45;;;;;;;3.73;2.87;;;15.10;90.00;;;;;;6335958;22;20191;-89
2024/01/19 12:46:15;;;;;;;2.80;2.37;;;15.10;89.60;;;;;;6337590;22;20200;-90
2024/01/19 12:48:57;;;;;;;2.63;1.90;;;15.20;89.60;;;;;;6345565;22;20172;-86
2024/01/19 12:51:26;;;;;;;3.00;2.73;;;15.20;89.60;;;;;;6362169;22;20168;-87
2024/01/19 12:53:56;;;;;;;6.43;2.53;;;15.10;89.40;;;;;;6355927;22;20251;-86
2024/01/19 12:56:27;;;;;;;2.20;1.90;;;15.10;89.60;;;;;;6350886;22;20158;-87
2024/01/19 12:59:07;;;;;;;5.87;2.77;;;15.10;89.70;;;;;;6336618;22;20164;-87
2024/01/19 13:01:39;;;;;;;3.07;1.80;;;15.10;89.80;;;;;;6334323;22;20160;-89
2024/01/19 13:04:08;;;;;;;11.23;2.10;;;15.10;90.00;;;;;;6338028;22;20156;-88
2024/01/19 13:06:41;;;;;;;4.17;2.27;;;15.10;90.00;;;;;;6334975;22;20219;-88
2024/01/19 13:09:10;;;;;;;3.67;2.10;;;15.10;90.00;;;;;;6334736;22;20160;-89
2024/01/19 13:11:39;;;;;;;3.03;2.63;;;15.10;90.10;;;;;;6335582;22;20551;-89
2024/01/19 13:14:25;;;;;;;2.80;2.10;;;15.10;90.00;;;;;;6334442;22;20467;-89
2024/01/19 13:16:58;;;;;;;1.80;1.43;;;15.10;90.00;;;;;;6335524;22;20604;-91
2024/01/19 13:19:27;;;;;;;4.03;2.07;;;15.10;90.00;;;;;;6335336;22;20267;-88
2024/01/19 13:21:56;;;;;;;3.27;1.70;;;15.10;90.00;;;;;;6335698;22;20238;-90
2024/01/19 13:24:28;;;;;;;1.73;1.57;;;15.10;90.00;;;;;;6335394;22;20156;-89
2024/01/19 13:27:01;;;;;;;3.57;1.93;;;15.10;90.00;;;;;;6335721;22;20192;-89
2024/01/19 13:29:29;;;;;;;7.00;2.47;;;15.20;90.00;;;;;;6335832;22;20168;-88
2024/01/19 13:32:00;;;;;;;7.30;2.20;;;15.20;90.00;;;;;;6335752;22;20219;-87
2024/01/19 13:34:29;;;;;;;1.73;1.53;;;15.10;90.00;;;;;;6336039;22;20539;-88
2024/01/19 13:36:58;;;;;;;3.77;2.93;;;15.10;90.00;;;;;;6336087;22;20173;-88
2024/01/19 13:39:27;;;;;;;4.33;3.43;;;15.10;90.10;;;;;;6336470;22;20153;-89
2024/01/19 13:41:56;;;;;;;3.53;2.23;;;15.10;90.20;;;;;;6337801;22;20160;-90
2024/01/19 13:44:25;;;;;;;4.13;2.57;;;15.00;90.20;;;;;;6337966;22;20786;-90
2024/01/19 13:46:55;;;;;;;1.03;0.90;;;15.00;90.20;;;;;;6336967;22;20183;-89
2024/01/19 13:49:25;;;;;;;1.67;1.57;;;15.00;90.60;;;;;;6338165;22;20198;-89
2024/01/19 13:51:54;;;;;;;1.43;1.33;;;15.00;90.20;;;;;;6338750;22;20169;-89
2024/01/19 13:54:22;;;;;;;1.23;1.13;;;15.00;90.20;;;;;;6339265;22;20171;-89
2024/01/19 13:56:51;;;;;;;1.30;1.20;;;15.00;90.10;;;;;;6337724;22;20255;-88
2024/01/19 13:59:19;;;;;;;2.20;1.03;;;15.10;90.10;;;;;;6334478;22;20161;-88
2024/01/19 14:01:48;;;;;;;3.13;1.70;;;15.10;90.00;;;;;;6336083;22;20171;-89
2024/01/19 14:04:18;;;;;;;1.70;1.23;;;15.10;90.00;;;;;;6336693;22;20218;-90
2024/01/19 14:06:49;;;;;;;0.40;0.40;;;15.10;90.00;;;;;;6336854;22;20674;-91
2024/01/19 14:09:17;;;;;;;0.90;0.63;;;15.10;90.00;;;;;;6333754;22;20198;-88
2024/01/19 14:11:48;;;;;;;0.80;0.80;;;15.10;89.90;;;;;;6336059;22;20172;-90
2024/01/19 14:14:17;;;;;;;4.50;1.80;;;15.10;89.90;;;;;;6338165;22;20187;-90
2024/01/19 14:19:30;;;;;;;2.40;1.47;;;15.10;89.80;;;;;;6337991;22;20195;-91
2024/01/19 14:22:28;;;;;;;2.20;1.23;;;15.10;90.10;;;;;;6338769;22;20165;-90
2024/01/19 14:24:58;;;;;;;1.37;1.23;;;15.10;90.60;;;;;;6335318;22;20200;-90
2024/01/19 14:27:28;;;;;;;4.30;2.70;;;15.10;90.50;;;;;;6334741;22;20276;-88
2024/01/19 14:29:57;;;;;;;3.20;2.43;;;15.10;90.50;;;;;;6332815;22;20179;-88
2024/01/19 14:32:40;;;;;;;4.03;2.40;;;15.10;90.40;;;;;;6332973;22;20164;-88
2024/01/19 14:35:09;;;;;;;2.77;2.07;;;15.10;90.30;;;;;;6332089;22;20424;-88
2024/01/19 14:37:38;;;;;;;7.70;1.57;;;15.10;90.20;;;;;;6332899;22;20195;-87
2024/01/19 14:40:09;;;;;;;1.70;1.60;;;15.10;90.20;;;;;;6333226;22;20225;-88
2024/01/19 14:42:38;;;;;;;3.63;2.53;;;15.10;90.10;;;;;;6335728;22;20184;-88
2024/01/19 14:45:07;;;;;;;2.40;2.20;;;15.00;90.20;;;;;;6335176;22;20171;-89
2024/01/19 14:47:36;;;;;;;5.77;3.10;;;15.00;90.30;;;;;;6335279;22;20191;-88
2024/01/19 14:50:18;;;;;;;5.17;2.90;;;14.90;90.60;;;;;;6332421;22;20176;-88
2024/01/19 14:52:48;;;;;;;5.30;4.17;;;14.90;90.40;;;;;;6331676;22;20172;-88
2024/01/19 14:55:18;;;;;;;5.33;2.77;;;14.80;90.40;;;;;;6331469;22;20165;-88
2024/01/19 14:58:02;;;;;;;4.43;3.03;;;14.80;90.40;;;;;;6333317;22;20169;-87